Página principal
METAR-TAF:

METAR-TAF

Aeroportos :

Duchambe, Tadjiquistão

latitude: 38-33N, longitude: 068-47E, altura: 803 m

Observação actual do tempo

O boletim foi feito há 24 minutos, às 04:30 UTC
Vento 12 kt de este
Temperatura 21°C
Humidade 53%
Pressão 1022 hPa
Visibilidade 10 km ou mais
Poucas nuvensa uma altura de 6600 ft

METAR: UTDD 230430Z 09006MPS 9999 FEW066 21/11 Q1022 R09/D NOSIG RMK QFE697/0930

Hora: 09:54 (04:54 UTC)

Previsão

O boletim foi feito há 1 hora e 54 minutos, às 03:00 UTC
Previsão válida de 23 às 04 UTC a 23 às 16 UTC
Vento 4 kt com direcção variável
Visibilidade: 6000 m
Nuvens dispersasa uma altura de 5000 ft, Cumulonimbus.
Nuvens fragmentadasa uma altura de 10000 ft
Temporariamente
de 23 às 04 UTC a 23 às 06 UTC
Vento 10 kt de este
Temporariamente
de 23 às 06 UTC a 23 às 16 UTC
trovoada

TAF: UTDD 230300Z 2304/2316 VRB02MPS 6000 SCT050CB BKN100 TEMPO 2304/2306 10005MPS TEMPO 2306/2316 TS

Observações e previsões do tempo de mais de 4000 aeroportos (mensagens METAR e TAF).

As estações disponíveis são os pontos amarelos e vermelhos sobre o mapa.

Mova o rato sobre o mapa para ver o nome da estação.

Depois clique no ponto para visualizar as observações e previsões meteorológicas.

Para alterar o mapa : clique nos botões verdes com uma cruz preta para aumentar o zoom; no botão verde com uma pitada de zoom; ou nas setas verdes para mapas adjacentes.


METAR-TAF: